Nueces — WDC2624 — position and weather

sailwx.info

Track history (hours):
 
Tides and Currents Weather Stations Pressure Air Temp Water Temp Dewpoint Dewpoint Depression Visibility Wind Speed Wind Dir Waves Ship Positions

Nueces

Owner: Kirby Inland Marine LP, Houston, TX. More information available from US FCC via Universal Licensing System and Coast Guard Vessel Documentation Center.

Last reported at 2018-Feb-20 13:13 UTC. Time now 2018-Feb-22 13:13 UTC.
Position N 28°57' W 095°20'.

Length 19 m; draft 2.9 m.

Type: . MMSI: 366995720.

Date/timePositionNaut miles runAvg speedWind from/ knotsBaromVisibWave heightAir tempDewpointWater temp
2018-Feb-20 13:13N 28°57' W 095°20'0 1.8
2018-Feb-20 12:57N 28°57' W 095°20'0 0.0
2018-Feb-20 12:30N 28°57' W 095°20'0 0.1
2018-Feb-20 07:31N 28°57' W 095°20'0 0.0
2018-Feb-20 07:30N 28°57' W 095°20'0 0.0
2018-Feb-20 06:49N 28°57' W 095°20'40 3.9
2018-Feb-19 20:28N 29°23' W 094°46'2 3.5
2018-Feb-19 19:49N 29°25' W 094°44'1 1.1
2018-Feb-19 18:49N 29°26' W 094°43'1 2.7
2018-Feb-19 18:20N 29°25' W 094°44'2 6.4
2018-Feb-19 18:00N 29°23' W 094°46'2 4.8
2018-Feb-19 17:29N 29°23' W 094°49'4 8.3
2018-Feb-19 16:59N 29°27' W 094°51'4 7.5
2018-Feb-19 16:30N 29°30' W 094°52'4 7.5
2018-Feb-19 16:00N 29°33' W 094°55'4 7.2
2018-Feb-19 15:30N 29°36' W 094°57'3 6.9
2018-Feb-19 15:00N 29°39' W 094°58'3 6.5
2018-Feb-19 14:30N 29°42' W 095°01'3 6.2
2018-Feb-19 14:00N 29°44' W 095°03'3 5.6
2018-Feb-19 13:28N 29°47' W 095°04'0 0.0
2018-Feb-19 11:09N 29°47' W 095°04'1 5.7
2018-Feb-19 10:54N 29°46' W 095°05'1 3.5
2018-Feb-19 10:29N 29°45' W 095°06'0 0.0
2018-Feb-19 10:00N 29°45' W 095°06'0 0.4
2018-Feb-19 09:28N 29°45' W 095°06'0 0.5
2018-Feb-19 08:59N 29°45' W 095°06'0 0.0
2018-Feb-19 08:30N 29°45' W 095°06'0 0.0
2018-Feb-19 08:00N 29°45' W 095°06'0 0.1
2018-Feb-19 07:30N 29°45' W 095°06'0 0.2
2018-Feb-19 06:59N 29°45' W 095°06'1 2.2
2018-Feb-19 06:30N 29°46' W 095°07'0 0.1
2018-Feb-19 06:00N 29°46' W 095°07'1 2.4
2018-Feb-19 05:30N 29°45' W 095°06'1 1.8
2018-Feb-19 04:43N 29°46' W 095°06'1 0.5
2018-Feb-19 02:41N 29°46' W 095°06'1 1.3
2018-Feb-19 02:09N 29°45' W 095°06'0 0.0
2018-Feb-19 01:40N 29°45' W 095°06'0 0.0
2018-Feb-18 19:07N 29°45' W 095°06'0 0.0
2018-Feb-18 18:58N 29°45' W 095°06'0 0.0
2018-Feb-18 18:27N 29°45' W 095°06'0 0.0
2018-Feb-18 18:00N 29°45' W 095°06'0 0.0
2018-Feb-18 17:30N 29°45' W 095°06'0 0.0
2018-Feb-18 16:59N 29°45' W 095°06'0 0.0
2018-Feb-18 16:30N 29°45' W 095°06'0 0.0
2018-Feb-18 16:00N 29°45' W 095°06'0 0.4
2018-Feb-18 15:28N 29°45' W 095°06'0 0.7
2018-Feb-18 14:56N 29°46' W 095°06'0 0.1
2018-Feb-18 14:28N 29°45' W 095°06'1 0.3
2018-Feb-18 11:59N 29°45' W 095°06'3 1.6
2018-Feb-18 09:57N 29°45' W 095°10'4 1.5
2018-Feb-18 07:19N 29°45' W 095°06'1 2.6
2018-Feb-18 06:58N 29°46' W 095°06'0 0.0
2018-Feb-18 06:28N 29°46' W 095°06'1 0.4
2018-Feb-18 04:21N 29°45' W 095°06'1 3.6
2018-Feb-18 04:00N 29°46' W 095°04'3 6.0
2018-Feb-18 03:26N 29°43' W 095°01'3 5.9
2018-Feb-18 03:00N 29°41' W 094°59'3 6.7
2018-Feb-18 02:30N 29°38' W 094°58'3 6.6
2018-Feb-18 02:00N 29°35' W 094°56'3 6.8
2018-Feb-18 01:30N 29°32' W 094°54'4 7.6
2018-Feb-18 00:55N 29°29' W 094°51'8 8.5
2018-Feb-18 00:02N 29°22' W 094°48'1 6.9
2018-Feb-17 23:51N 29°21' W 094°49'3 6.2
2018-Feb-17 23:25N 29°19' W 094°52'8 4.5
2018-Feb-17 21:39N 29°15' W 094°60'2 6.7
2018-Feb-17 21:19N 29°14' W 095°02'23 1.2
2018-Feb-17 02:13N 28°57' W 095°20'0 0.0
2018-Feb-17 01:54N 28°57' W 095°20'0 0.0
2018-Feb-17 01:29N 28°57' W 095°20'0 0.0
2018-Feb-17 01:00N 28°57' W 095°20'18 1.0
2018-Feb-16 06:10N 29°10' W 095°06'0 0.0
2018-Feb-16 05:58N 29°10' W 095°06'0 0.0
2018-Feb-16 05:22N 29°10' W 095°06'0 0.0
2018-Feb-16 04:40N 29°10' W 095°06'0 0.0
2018-Feb-16 04:16N 29°10' W 095°06'0 0.0
2018-Feb-16 03:58N 29°10' W 095°06'0 0.0
2018-Feb-16 03:04N 29°10' W 095°06'0 0.0
2018-Feb-16 02:52N 29°10' W 095°06'0 0.0
2018-Feb-16 02:28N 29°10' W 095°06'1 0.7
2018-Feb-16 00:36N 29°11' W 095°05'1 4.2
2018-Feb-16 00:28N 29°11' W 095°04'2 3.6
2018-Feb-16 00:01N 29°12' W 095°03'2 3.7
2018-Feb-15 23:27N 29°14' W 095°01'18 4.6
2018-Feb-15 19:36N 29°29' W 094°52'3 6.5
2018-Feb-15 19:08N 29°32' W 094°54'1 6.1
2018-Feb-15 19:00N 29°33' W 094°54'3 6.1
2018-Feb-15 18:30N 29°35' W 094°56'3 5.4
2018-Feb-15 18:00N 29°37' W 094°59'2 4.7
2018-Feb-15 17:30N 29°37' W 095°01'0 0.1
2018-Feb-15 16:53N 29°37' W 095°01'0 0.0
2018-Feb-15 16:29N 29°37' W 095°01'0 0.1
2018-Feb-15 15:56N 29°37' W 095°01'0 0.0
2018-Feb-15 15:29N 29°37' W 095°01'0 0.0
2018-Feb-15 14:59N 29°37' W 095°01'0 0.0
2018-Feb-15 14:29N 29°37' W 095°01'0 0.0
2018-Feb-15 13:59N 29°37' W 095°01'0 0.0
2018-Feb-15 13:29N 29°37' W 095°01'0 0.0
2018-Feb-15 12:44N 29°37' W 095°01'0 0.0
2018-Feb-15 12:20N 29°37' W 095°01'0 0.0
2018-Feb-15 11:59N 29°37' W 095°01'0 0.0
2018-Feb-15 11:26N 29°37' W 095°01'0 0.0
2018-Feb-15 10:56N 29°37' W 095°01'0 0.0
2018-Feb-15 10:29N 29°37' W 095°01'0 0.0
2018-Feb-15 09:59N 29°37' W 095°01'0 0.0
2018-Feb-15 09:20N 29°37' W 095°01'0 0.0
2018-Feb-15 08:59N 29°37' W 095°01'0 0.0
2018-Feb-15 08:26N 29°37' W 095°01'0 0.0
2018-Feb-15 07:38N 29°37' W 095°01'0 0.0
2018-Feb-15 07:29N 29°37' W 095°01'0 0.0
2018-Feb-15 06:50N 29°37' W 095°01'0 0.0
2018-Feb-15 06:23N 29°37' W 095°01'0 0.0
2018-Feb-15 05:59N 29°37' W 095°01'0 0.0
2018-Feb-15 05:26N 29°37' W 095°01'0 0.0
2018-Feb-15 04:59N 29°37' W 095°01'0 0.0
2018-Feb-15 04:29N 29°37' W 095°01'0 0.0
2018-Feb-15 03:59N 29°37' W 095°01'0 0.0
2018-Feb-15 03:26N 29°37' W 095°01'0 0.0
2018-Feb-15 02:59N 29°37' W 095°01'0 0.0
2018-Feb-15 02:29N 29°37' W 095°01'0 0.0
2018-Feb-15 01:49N 29°37' W 095°01'0 0.0
2018-Feb-15 01:28N 29°37' W 095°01'0 0.0
2018-Feb-15 00:58N 29°37' W 095°01'0 0.0
2018-Feb-15 00:28N 29°37' W 095°01'0 0.0
2018-Feb-14 23:58N 29°37' W 095°01'0 0.0
2018-Feb-14 23:28N 29°37' W 095°01'0 0.0
2018-Feb-14 22:58N 29°37' W 095°01'0 0.0
2018-Feb-14 22:28N 29°37' W 095°01'0 0.0
2018-Feb-14 21:58N 29°37' W 095°01'0 0.0
2018-Feb-14 21:28N 29°37' W 095°01'0 0.0
2018-Feb-14 20:58N 29°37' W 095°01'0 0.0
2018-Feb-14 20:22N 29°37' W 095°01'0 0.0
2018-Feb-14 19:55N 29°37' W 095°01'0 0.0
2018-Feb-14 19:28N 29°37' W 095°01'0 0.0
2018-Feb-14 18:58N 29°37' W 095°01'0 0.0
2018-Feb-14 18:28N 29°37' W 095°01'0 0.0
2018-Feb-14 17:58N 29°37' W 095°01'0 0.0
2018-Feb-14 17:28N 29°37' W 095°01'0 0.0
2018-Feb-14 16:58N 29°37' W 095°01'0 0.1
2018-Feb-14 16:28N 29°37' W 095°01'0 0.1
2018-Feb-14 15:55N 29°37' W 095°01'0 0.0
2018-Feb-14 15:28N 29°37' W 095°01'0 0.0
2018-Feb-14 14:55N 29°37' W 095°01'0 0.0
2018-Feb-14 11:37N 29°37' W 095°01'0 0.0
2018-Feb-14 11:28N 29°37' W 095°01'0 0.0
2018-Feb-14 10:58N 29°37' W 095°01'0 0.0
2018-Feb-14 10:28N 29°37' W 095°01'0 0.0
2018-Feb-14 09:58N 29°37' W 095°01'0 0.0
2018-Feb-14 09:28N 29°37' W 095°01'0 0.0
2018-Feb-14 08:58N 29°37' W 095°01'0 0.0
2018-Feb-14 08:28N 29°37' W 095°01'0 0.0
2018-Feb-14 07:58N 29°37' W 095°01'0 0.0
2018-Feb-14 07:28N 29°37' W 095°01'0 0.0
2018-Feb-14 06:55N 29°37' W 095°01'0 0.0
2018-Feb-14 06:28N 29°37' W 095°01'0 0.0
2018-Feb-14 05:46N 29°37' W 095°01'0 0.0
2018-Feb-14 05:28N 29°37' W 095°01'0 0.0
2018-Feb-14 05:00N 29°37' W 095°01'0 0.0
2018-Feb-14 04:30N 29°37' W 095°01'0 0.0
2018-Feb-14 04:00N 29°37' W 095°01'0 0.0
2018-Feb-14 03:30N 29°37' W 095°01'0 0.0
2018-Feb-14 03:00N 29°37' W 095°01'0 0.0
2018-Feb-14 02:30N 29°37' W 095°01'0 0.0
2018-Feb-14 02:00N 29°37' W 095°01'0 0.0
2018-Feb-14 01:30N 29°37' W 095°01'0 0.0
2018-Feb-14 01:00N 29°37' W 095°01'0 0.0
2018-Feb-14 00:30N 29°37' W 095°01'0 0.0
2018-Feb-14 00:00N 29°37' W 095°01'0 0.0
2018-Feb-13 23:30N 29°37' W 095°01'0 0.0
2018-Feb-13 23:00N 29°37' W 095°01'0 0.0
2018-Feb-13 22:30N 29°37' W 095°01'0 0.0
2018-Feb-13 22:00N 29°37' W 095°01'0 0.0
2018-Feb-13 21:30N 29°37' W 095°01'0 0.0
2018-Feb-13 21:00N 29°37' W 095°01'0 0.0
2018-Feb-13 20:30N 29°37' W 095°01'0 0.0
2018-Feb-13 20:00N 29°37' W 095°01'0 0.0
2018-Feb-13 19:30N 29°37' W 095°01'0 0.0
2018-Feb-13 19:00N 29°37' W 095°01'0 0.0
2018-Feb-13 18:30N 29°37' W 095°01'0 0.0
2018-Feb-13 18:00N 29°37' W 095°01'2 4.7
2018-Feb-13 17:29N 29°37' W 094°58'2 4.7
2018-Feb-13 17:00N 29°39' W 094°58'4 6.8
2018-Feb-13 16:27N 29°42' W 095°01'3 5.9
2018-Feb-13 16:00N 29°44' W 095°03'7 0.5
2018-Feb-13 02:06N 29°37' W 095°02'0 0.0
2018-Feb-13 02:00N 29°37' W 095°02'0 0.0
2018-Feb-13 01:30N 29°37' W 095°02'0 0.0
2018-Feb-13 01:00N 29°37' W 095°02'0 0.0
2018-Feb-13 00:30N 29°37' W 095°02'0 0.0
2018-Feb-12 23:57N 29°37' W 095°02'0 0.0
2018-Feb-12 23:27N 29°37' W 095°02'0 0.0
2018-Feb-12 23:00N 29°37' W 095°02'0 0.0
2018-Feb-12 22:30N 29°37' W 095°02'0 0.0
2018-Feb-12 22:00N 29°37' W 095°02'0 0.0
2018-Feb-12 21:30N 29°37' W 095°02'0 0.0
2018-Feb-12 20:57N 29°37' W 095°01'0 0.0
2018-Feb-12 20:30N 29°37' W 095°02'0 0.0
2018-Feb-12 19:57N 29°37' W 095°02'0 0.0
2018-Feb-12 19:30N 29°37' W 095°01'0 0.0
2018-Feb-12 19:00N 29°37' W 095°02'0 0.0
2018-Feb-12 18:30N 29°37' W 095°01'0 0.0
2018-Feb-12 18:00N 29°37' W 095°01'0 0.0
2018-Feb-12 17:30N 29°37' W 095°01'0 0.3
2018-Feb-12 17:00N 29°37' W 095°01'0 0.1
2018-Feb-12 16:30N 29°37' W 095°01'0 0.4
2018-Feb-12 16:00N 29°37' W 095°01'2 4.4
2018-Feb-12 15:30N 29°37' W 094°59'2 3.8
2018-Feb-12 15:00N 29°39' W 094°58'3 6.3
2018-Feb-12 14:30N 29°42' W 094°59'4 6.7
2018-Feb-12 13:58N 29°44' W 095°03'3 0.6
2018-Feb-12 09:15N 29°46' W 095°05'2 6.9
2018-Feb-12 09:00N 29°44' W 095°03'3 6.3
2018-Feb-12 08:30N 29°42' W 095°01'3 6.1
2018-Feb-12 08:00N 29°40' W 094°58'4 7.7
2018-Feb-12 07:30N 29°36' W 094°57'4 7.8
2018-Feb-12 07:00N 29°33' W 094°55'  
Track history (hours):
 
Tides and Currents Weather Stations Pressure Air Temp Water Temp Dewpoint Dewpoint Depression Visibility Wind Speed Wind Dir Waves Ship Positions

Nueces

Owner: Kirby Inland Marine LP, Houston, TX. More information available from US FCC via Universal Licensing System and Coast Guard Vessel Documentation Center.

Last reported at 2018-Feb-20 13:13 UTC. Time now 2018-Feb-22 13:13 UTC.
Position N 28°57' W 095°20'.

Length 19 m; draft 2.9 m.

Type: . MMSI: 366995720.

Date/timePositionNaut miles runAvg speedWind from/ knotsBaromVisibWave heightAir tempDewpointWater temp
2018-Feb-20 13:13N 28°57' W 095°20'0 1.8
2018-Feb-20 12:57N 28°57' W 095°20'0 0.0
2018-Feb-20 12:30N 28°57' W 095°20'0 0.1
2018-Feb-20 07:31N 28°57' W 095°20'0 0.0
2018-Feb-20 07:30N 28°57' W 095°20'0 0.0
2018-Feb-20 06:49N 28°57' W 095°20'40 3.9
2018-Feb-19 20:28N 29°23' W 094°46'2 3.5
2018-Feb-19 19:49N 29°25' W 094°44'1 1.1
2018-Feb-19 18:49N 29°26' W 094°43'1 2.7
2018-Feb-19 18:20N 29°25' W 094°44'2 6.4
2018-Feb-19 18:00N 29°23' W 094°46'2 4.8
2018-Feb-19 17:29N 29°23' W 094°49'4 8.3
2018-Feb-19 16:59N 29°27' W 094°51'4 7.5
2018-Feb-19 16:30N 29°30' W 094°52'4 7.5
2018-Feb-19 16:00N 29°33' W 094°55'4 7.2
2018-Feb-19 15:30N 29°36' W 094°57'3 6.9
2018-Feb-19 15:00N 29°39' W 094°58'3 6.5
2018-Feb-19 14:30N 29°42' W 095°01'3 6.2
2018-Feb-19 14:00N 29°44' W 095°03'3 5.6
2018-Feb-19 13:28N 29°47' W 095°04'0 0.0
2018-Feb-19 11:09N 29°47' W 095°04'1 5.7
2018-Feb-19 10:54N 29°46' W 095°05'1 3.5
2018-Feb-19 10:29N 29°45' W 095°06'0 0.0
2018-Feb-19 10:00N 29°45' W 095°06'0 0.4
2018-Feb-19 09:28N 29°45' W 095°06'0 0.5
2018-Feb-19 08:59N 29°45' W 095°06'0 0.0
2018-Feb-19 08:30N 29°45' W 095°06'0 0.0
2018-Feb-19 08:00N 29°45' W 095°06'0 0.1
2018-Feb-19 07:30N 29°45' W 095°06'0 0.2
2018-Feb-19 06:59N 29°45' W 095°06'1 2.2
2018-Feb-19 06:30N 29°46' W 095°07'0 0.1
2018-Feb-19 06:00N 29°46' W 095°07'1 2.4
2018-Feb-19 05:30N 29°45' W 095°06'1 1.8
2018-Feb-19 04:43N 29°46' W 095°06'1 0.5
2018-Feb-19 02:41N 29°46' W 095°06'1 1.3
2018-Feb-19 02:09N 29°45' W 095°06'0 0.0
2018-Feb-19 01:40N 29°45' W 095°06'0 0.0
2018-Feb-18 19:07N 29°45' W 095°06'0 0.0
2018-Feb-18 18:58N 29°45' W 095°06'0 0.0
2018-Feb-18 18:27N 29°45' W 095°06'0 0.0
2018-Feb-18 18:00N 29°45' W 095°06'0 0.0
2018-Feb-18 17:30N 29°45' W 095°06'0 0.0
2018-Feb-18 16:59N 29°45' W 095°06'0 0.0
2018-Feb-18 16:30N 29°45' W 095°06'0 0.0
2018-Feb-18 16:00N 29°45' W 095°06'0 0.4
2018-Feb-18 15:28N 29°45' W 095°06'0 0.7
2018-Feb-18 14:56N 29°46' W 095°06'0 0.1
2018-Feb-18 14:28N 29°45' W 095°06'1 0.3
2018-Feb-18 11:59N 29°45' W 095°06'3 1.6
2018-Feb-18 09:57N 29°45' W 095°10'4 1.5
2018-Feb-18 07:19N 29°45' W 095°06'1 2.6
2018-Feb-18 06:58N 29°46' W 095°06'0 0.0
2018-Feb-18 06:28N 29°46' W 095°06'1 0.4
2018-Feb-18 04:21N 29°45' W 095°06'1 3.6
2018-Feb-18 04:00N 29°46' W 095°04'3 6.0
2018-Feb-18 03:26N 29°43' W 095°01'3 5.9
2018-Feb-18 03:00N 29°41' W 094°59'3 6.7
2018-Feb-18 02:30N 29°38' W 094°58'3 6.6
2018-Feb-18 02:00N 29°35' W 094°56'3 6.8
2018-Feb-18 01:30N 29°32' W 094°54'4 7.6
2018-Feb-18 00:55N 29°29' W 094°51'8 8.5
2018-Feb-18 00:02N 29°22' W 094°48'1 6.9
2018-Feb-17 23:51N 29°21' W 094°49'3 6.2
2018-Feb-17 23:25N 29°19' W 094°52'8 4.5
2018-Feb-17 21:39N 29°15' W 094°60'2 6.7
2018-Feb-17 21:19N 29°14' W 095°02'23 1.2
2018-Feb-17 02:13N 28°57' W 095°20'0 0.0
2018-Feb-17 01:54N 28°57' W 095°20'0 0.0
2018-Feb-17 01:29N 28°57' W 095°20'0 0.0
2018-Feb-17 01:00N 28°57' W 095°20'18 1.0
2018-Feb-16 06:10N 29°10' W 095°06'0 0.0
2018-Feb-16 05:58N 29°10' W 095°06'0 0.0
2018-Feb-16 05:22N 29°10' W 095°06'0 0.0
2018-Feb-16 04:40N 29°10' W 095°06'0 0.0
2018-Feb-16 04:16N 29°10' W 095°06'0 0.0
2018-Feb-16 03:58N 29°10' W 095°06'0 0.0
2018-Feb-16 03:04N 29°10' W 095°06'0 0.0
2018-Feb-16 02:52N 29°10' W 095°06'0 0.0
2018-Feb-16 02:28N 29°10' W 095°06'1 0.7
2018-Feb-16 00:36N 29°11' W 095°05'1 4.2
2018-Feb-16 00:28N 29°11' W 095°04'2 3.6
2018-Feb-16 00:01N 29°12' W 095°03'2 3.7
2018-Feb-15 23:27N 29°14' W 095°01'18 4.6
2018-Feb-15 19:36N 29°29' W 094°52'3 6.5
2018-Feb-15 19:08N 29°32' W 094°54'1 6.1
2018-Feb-15 19:00N 29°33' W 094°54'3 6.1
2018-Feb-15 18:30N 29°35' W 094°56'3 5.4
2018-Feb-15 18:00N 29°37' W 094°59'2 4.7
2018-Feb-15 17:30N 29°37' W 095°01'0 0.1
2018-Feb-15 16:53N 29°37' W 095°01'0 0.0
2018-Feb-15 16:29N 29°37' W 095°01'0 0.1
2018-Feb-15 15:56N 29°37' W 095°01'0 0.0
2018-Feb-15 15:29N 29°37' W 095°01'0 0.0
2018-Feb-15 14:59N 29°37' W 095°01'0 0.0
2018-Feb-15 14:29N 29°37' W 095°01'0 0.0
2018-Feb-15 13:59N 29°37' W 095°01'0 0.0
2018-Feb-15 13:29N 29°37' W 095°01'0 0.0
2018-Feb-15 12:44N 29°37' W 095°01'0 0.0
2018-Feb-15 12:20N 29°37' W 095°01'0 0.0
2018-Feb-15 11:59N 29°37' W 095°01'0 0.0
2018-Feb-15 11:26N 29°37' W 095°01'0 0.0
2018-Feb-15 10:56N 29°37' W 095°01'0 0.0
2018-Feb-15 10:29N 29°37' W 095°01'0 0.0
2018-Feb-15 09:59N 29°37' W 095°01'0 0.0
2018-Feb-15 09:20N 29°37' W 095°01'0 0.0
2018-Feb-15 08:59N 29°37' W 095°01'0 0.0
2018-Feb-15 08:26N 29°37' W 095°01'0 0.0
2018-Feb-15 07:38N 29°37' W 095°01'0 0.0
2018-Feb-15 07:29N 29°37' W 095°01'0 0.0
2018-Feb-15 06:50N 29°37' W 095°01'0 0.0
2018-Feb-15 06:23N 29°37' W 095°01'0 0.0
2018-Feb-15 05:59N 29°37' W 095°01'0 0.0
2018-Feb-15 05:26N 29°37' W 095°01'0 0.0
2018-Feb-15 04:59N 29°37' W 095°01'0 0.0
2018-Feb-15 04:29N 29°37' W 095°01'0 0.0
2018-Feb-15 03:59N 29°37' W 095°01'0 0.0
2018-Feb-15 03:26N 29°37' W 095°01'0 0.0
2018-Feb-15 02:59N 29°37' W 095°01'0 0.0
2018-Feb-15 02:29N 29°37' W 095°01'0 0.0
2018-Feb-15 01:49N 29°37' W 095°01'0 0.0
2018-Feb-15 01:28N 29°37' W 095°01'0 0.0
2018-Feb-15 00:58N 29°37' W 095°01'0 0.0
2018-Feb-15 00:28N 29°37' W 095°01'0 0.0
2018-Feb-14 23:58N 29°37' W 095°01'0 0.0
2018-Feb-14 23:28N 29°37' W 095°01'0 0.0
2018-Feb-14 22:58N 29°37' W 095°01'0 0.0
2018-Feb-14 22:28N 29°37' W 095°01'0 0.0
2018-Feb-14 21:58N 29°37' W 095°01'0 0.0
2018-Feb-14 21:28N 29°37' W 095°01'0 0.0
2018-Feb-14 20:58N 29°37' W 095°01'0 0.0
2018-Feb-14 20:22N 29°37' W 095°01'0 0.0
2018-Feb-14 19:55N 29°37' W 095°01'0 0.0
2018-Feb-14 19:28N 29°37' W 095°01'0 0.0
2018-Feb-14 18:58N 29°37' W 095°01'0 0.0
2018-Feb-14 18:28N 29°37' W 095°01'0 0.0
2018-Feb-14 17:58N 29°37' W 095°01'0 0.0
2018-Feb-14 17:28N 29°37' W 095°01'0 0.0
2018-Feb-14 16:58N 29°37' W 095°01'0 0.1
2018-Feb-14 16:28N 29°37' W 095°01'0 0.1
2018-Feb-14 15:55N 29°37' W 095°01'0 0.0
2018-Feb-14 15:28N 29°37' W 095°01'0 0.0
2018-Feb-14 14:55N 29°37' W 095°01'0 0.0
2018-Feb-14 11:37N 29°37' W 095°01'0 0.0
2018-Feb-14 11:28N 29°37' W 095°01'0 0.0
2018-Feb-14 10:58N 29°37' W 095°01'0 0.0
2018-Feb-14 10:28N 29°37' W 095°01'0 0.0
2018-Feb-14 09:58N 29°37' W 095°01'0 0.0
2018-Feb-14 09:28N 29°37' W 095°01'0 0.0
2018-Feb-14 08:58N 29°37' W 095°01'0 0.0
2018-Feb-14 08:28N 29°37' W 095°01'0 0.0
2018-Feb-14 07:58N 29°37' W 095°01'0 0.0
2018-Feb-14 07:28N 29°37' W 095°01'0 0.0
2018-Feb-14 06:55N 29°37' W 095°01'0 0.0
2018-Feb-14 06:28N 29°37' W 095°01'0 0.0
2018-Feb-14 05:46N 29°37' W 095°01'0 0.0
2018-Feb-14 05:28N 29°37' W 095°01'0 0.0
2018-Feb-14 05:00N 29°37' W 095°01'0 0.0
2018-Feb-14 04:30N 29°37' W 095°01'0 0.0
2018-Feb-14 04:00N 29°37' W 095°01'0 0.0
2018-Feb-14 03:30N 29°37' W 095°01'0 0.0
2018-Feb-14 03:00N 29°37' W 095°01'0 0.0
2018-Feb-14 02:30N 29°37' W 095°01'0 0.0
2018-Feb-14 02:00N 29°37' W 095°01'0 0.0
2018-Feb-14 01:30N 29°37' W 095°01'0 0.0
2018-Feb-14 01:00N 29°37' W 095°01'0 0.0
2018-Feb-14 00:30N 29°37' W 095°01'0 0.0
2018-Feb-14 00:00N 29°37' W 095°01'0 0.0
2018-Feb-13 23:30N 29°37' W 095°01'0 0.0
2018-Feb-13 23:00N 29°37' W 095°01'0 0.0
2018-Feb-13 22:30N 29°37' W 095°01'0 0.0
2018-Feb-13 22:00N 29°37' W 095°01'0 0.0
2018-Feb-13 21:30N 29°37' W 095°01'0 0.0
2018-Feb-13 21:00N 29°37' W 095°01'0 0.0
2018-Feb-13 20:30N 29°37' W 095°01'0 0.0
2018-Feb-13 20:00N 29°37' W 095°01'0 0.0
2018-Feb-13 19:30N 29°37' W 095°01'0 0.0
2018-Feb-13 19:00N 29°37' W 095°01'0 0.0
2018-Feb-13 18:30N 29°37' W 095°01'0 0.0
2018-Feb-13 18:00N 29°37' W 095°01'2 4.7
2018-Feb-13 17:29N 29°37' W 094°58'2 4.7
2018-Feb-13 17:00N 29°39' W 094°58'4 6.8
2018-Feb-13 16:27N 29°42' W 095°01'3 5.9
2018-Feb-13 16:00N 29°44' W 095°03'7 0.5
2018-Feb-13 02:06N 29°37' W 095°02'0 0.0
2018-Feb-13 02:00N 29°37' W 095°02'0 0.0
2018-Feb-13 01:30N 29°37' W 095°02'0 0.0
2018-Feb-13 01:00N 29°37' W 095°02'0 0.0
2018-Feb-13 00:30N 29°37' W 095°02'0 0.0
2018-Feb-12 23:57N 29°37' W 095°02'0 0.0
2018-Feb-12 23:27N 29°37' W 095°02'0 0.0
2018-Feb-12 23:00N 29°37' W 095°02'0 0.0
2018-Feb-12 22:30N 29°37' W 095°02'0 0.0
2018-Feb-12 22:00N 29°37' W 095°02'0 0.0
2018-Feb-12 21:30N 29°37' W 095°02'0 0.0
2018-Feb-12 20:57N 29°37' W 095°01'0 0.0
2018-Feb-12 20:30N 29°37' W 095°02'0 0.0
2018-Feb-12 19:57N 29°37' W 095°02'0 0.0
2018-Feb-12 19:30N 29°37' W 095°01'0 0.0
2018-Feb-12 19:00N 29°37' W 095°02'0 0.0
2018-Feb-12 18:30N 29°37' W 095°01'0 0.0
2018-Feb-12 18:00N 29°37' W 095°01'0 0.0
2018-Feb-12 17:30N 29°37' W 095°01'0 0.3
2018-Feb-12 17:00N 29°37' W 095°01'0 0.1
2018-Feb-12 16:30N 29°37' W 095°01'0 0.4
2018-Feb-12 16:00N 29°37' W 095°01'2 4.4
2018-Feb-12 15:30N 29°37' W 094°59'2 3.8
2018-Feb-12 15:00N 29°39' W 094°58'3 6.3
2018-Feb-12 14:30N 29°42' W 094°59'4 6.7
2018-Feb-12 13:58N 29°44' W 095°03'3 0.6
2018-Feb-12 09:15N 29°46' W 095°05'2 6.9
2018-Feb-12 09:00N 29°44' W 095°03'3 6.3
2018-Feb-12 08:30N 29°42' W 095°01'3 6.1
2018-Feb-12 08:00N 29°40' W 094°58'4 7.7
2018-Feb-12 07:30N 29°36' W 094°57'4 7.8
2018-Feb-12 07:00N 29°33' W 094°55'  

Dump ship's entire track history